createdAt,value
2023-11-09T00:00:26.624Z,7.20
2023-11-09T00:03:41.863Z,7.20
2023-11-09T00:06:24.854Z,7.20
2023-11-09T00:09:26.684Z,7.30
2023-11-09T00:12:30.332Z,7.50
2023-11-09T00:15:37.908Z,7.30
2023-11-09T00:22:23.411Z,7.30
2023-11-09T00:24:54.869Z,7.50
2023-11-09T00:27:56.139Z,7.30
2023-11-09T00:30:59.962Z,7.50
2023-11-09T00:33:58.883Z,7.40
2023-11-09T00:36:54.760Z,7.30
2023-11-09T00:39:44.504Z,7.30
2023-11-09T00:44:31.767Z,7.40
2023-11-09T00:46:11.700Z,7.40
2023-11-09T00:48:59.112Z,7.20
2023-11-09T00:52:19.313Z,7.20
2023-11-09T00:55:09.167Z,7.30
2023-11-09T01:02:17.756Z,7.10
2023-11-09T01:12:19.256Z,7.30
2023-11-09T01:15:37.732Z,7.30
2023-11-09T01:18:49.303Z,7.30
2023-11-09T01:22:13.117Z,7.30
2023-11-09T01:32:02.467Z,7.30
2023-11-09T01:37:58.845Z,7.10
2023-11-09T01:40:46.315Z,7.20
2023-11-09T01:43:47.664Z,7.40
2023-11-09T01:53:31.926Z,7.40
2023-11-09T01:57:13.252Z,7.20
2023-11-09T02:00:24.821Z,7.30
2023-11-09T02:06:59.416Z,7.50
2023-11-09T02:11:41.221Z,7.60
2023-11-09T02:13:08.711Z,7.40
2023-11-09T02:15:51.943Z,7.60
2023-11-09T02:18:42.759Z,7.70
2023-11-09T02:22:15.358Z,7.70
2023-11-09T02:25:19.952Z,7.80
2023-11-09T02:28:39.194Z,7.60
2023-11-09T02:31:41.739Z,7.60
2023-11-09T02:34:36.316Z,7.80
2023-11-09T02:37:56.493Z,7.80
2023-11-09T02:40:49.934Z,7.70
2023-11-09T02:43:47.582Z,7.70
2023-11-09T02:47:10.824Z,7.70
2023-11-09T02:53:54.655Z,7.80
2023-11-09T02:57:06.613Z,7.80
2023-11-09T03:00:08.624Z,8.00
2023-11-09T03:02:46.250Z,8.00
2023-11-09T03:09:19.566Z,7.90
2023-11-09T03:12:01.328Z,8.00
2023-11-09T03:18:35.704Z,7.90
2023-11-09T03:21:44.854Z,7.90
2023-11-09T03:28:15.022Z,8.20
2023-11-09T03:34:55.066Z,8.30
2023-11-09T03:41:18.818Z,8.40
2023-11-09T03:48:23.457Z,8.30
2023-11-09T03:51:45.977Z,8.40
2023-11-09T03:55:44.327Z,8.40
2023-11-09T03:58:57.569Z,8.40
2023-11-09T04:02:10.336Z,8.40
2023-11-09T04:05:31.487Z,8.50
2023-11-09T04:09:12.870Z,8.70
2023-11-09T04:12:39.210Z,8.70
2023-11-09T04:16:00.499Z,8.80
2023-11-09T04:19:18.654Z,8.90
2023-11-09T04:25:53.321Z,9.00
2023-11-09T04:30:00.691Z,9.00
2023-11-09T04:36:24.726Z,9.20
2023-11-09T04:39:42.249Z,9.50
2023-11-09T04:46:38.880Z,9.50
2023-11-09T04:54:18.610Z,9.60
2023-11-09T04:56:55.815Z,9.70
2023-11-09T05:07:32.356Z,9.80
2023-11-09T05:17:12.334Z,9.90
2023-11-09T05:19:55.703Z,9.90
2023-11-09T05:22:32.232Z,9.90
2023-11-09T05:25:13.784Z,9.90
2023-11-09T05:27:42.196Z,10.00
2023-11-09T05:30:25.381Z,10.00
2023-11-09T05:32:59.081Z,10.10
2023-11-09T05:35:40.609Z,10.10
2023-11-09T05:38:18.254Z,10.20
2023-11-09T05:41:50.015Z,10.30
2023-11-09T05:44:24.035Z,10.40
2023-11-09T05:46:59.995Z,10.40
2023-11-09T05:49:38.948Z,10.40
2023-11-09T05:52:19.866Z,10.40
2023-11-09T05:54:46.928Z,10.50
2023-11-09T05:57:21.423Z,10.50
2023-11-09T05:59:56.426Z,10.60
2023-11-09T06:02:27.773Z,10.60
2023-11-09T06:05:00.645Z,10.60
2023-11-09T06:07:45.853Z,10.80
2023-11-09T06:14:22.545Z,10.70
2023-11-09T06:17:40.823Z,10.60
2023-11-09T06:24:42.052Z,10.60
2023-11-09T06:32:04.977Z,10.60
2023-11-09T06:34:32.450Z,10.60
2023-11-09T06:36:59.295Z,10.60
2023-11-09T06:39:26.673Z,10.60
2023-11-09T06:41:53.910Z,10.60
2023-11-09T06:44:20.767Z,10.70
2023-11-09T06:46:47.714Z,10.60
2023-11-09T06:49:15.373Z,10.60
2023-11-09T06:51:43.070Z,10.70
2023-11-09T06:54:09.957Z,10.70
2023-11-09T06:56:40.226Z,10.80
2023-11-09T06:59:09.357Z,10.80
2023-11-09T07:01:36.690Z,10.80
2023-11-09T07:04:03.841Z,10.80
2023-11-09T07:06:30.761Z,10.80
2023-11-09T07:08:57.560Z,10.80
2023-11-09T07:11:24.379Z,10.90
2023-11-09T07:13:51.190Z,10.90
2023-11-09T07:16:18.145Z,10.90
2023-11-09T07:18:46.538Z,10.90
2023-11-09T07:21:13.384Z,10.90
2023-11-09T07:23:40.501Z,10.90
2023-11-09T07:26:07.432Z,10.90
2023-11-09T07:28:34.402Z,11.00
2023-11-09T07:31:02.116Z,11.00
2023-11-09T07:33:29.278Z,11.00
2023-11-09T07:35:57.683Z,11.00
2023-11-09T07:38:24.624Z,11.10
2023-11-09T07:40:51.424Z,11.00
2023-11-09T07:43:19.367Z,10.90
2023-11-09T07:45:46.918Z,11.00
2023-11-09T07:48:14.351Z,10.90
2023-11-09T07:50:42.407Z,11.00
2023-11-09T07:53:09.322Z,11.00
2023-11-09T07:55:36.464Z,11.00
2023-11-09T07:58:04.943Z,11.00
2023-11-09T08:00:31.967Z,11.00
2023-11-09T08:02:59.521Z,11.00
2023-11-09T08:05:38.967Z,11.10
2023-11-09T08:08:06.217Z,11.00
2023-11-09T08:10:34.468Z,11.00
2023-11-09T08:13:01.917Z,11.10
2023-11-09T08:15:29.168Z,11.10
2023-11-09T08:17:56.411Z,11.10
2023-11-09T08:20:24.811Z,11.10
2023-11-09T08:22:51.854Z,11.10
2023-11-09T08:25:20.306Z,11.10
2023-11-09T08:27:47.977Z,11.10
2023-11-09T08:30:16.899Z,11.10
2023-11-09T08:32:48.515Z,11.20
2023-11-09T08:35:19.209Z,11.20
2023-11-09T08:37:47.127Z,11.40
2023-11-09T08:40:18.151Z,11.40
2023-11-09T08:42:50.008Z,11.40
2023-11-09T08:45:30.820Z,11.50
2023-11-09T08:47:58.140Z,11.60
2023-11-09T08:50:26.230Z,11.60
2023-11-09T08:57:18.228Z,11.60
2023-11-09T08:59:45.090Z,11.60
2023-11-09T09:02:11.872Z,11.60
2023-11-09T09:04:38.708Z,11.70
2023-11-09T09:07:05.520Z,11.80
2023-11-09T09:09:41.500Z,11.80
2023-11-09T09:12:16.184Z,11.80
2023-11-09T09:14:43.819Z,11.90
2023-11-09T09:17:11.623Z,11.90
2023-11-09T09:19:39.939Z,12.00
2023-11-09T09:22:07.102Z,12.10
2023-11-09T09:24:33.919Z,12.10
2023-11-09T09:27:00.661Z,12.10
2023-11-09T09:29:30.864Z,12.20
2023-11-09T09:31:58.092Z,12.10
2023-11-09T09:34:26.750Z,12.20
2023-11-09T09:36:56.152Z,12.30
2023-11-09T09:39:22.901Z,12.30
2023-11-09T09:41:52.860Z,12.30
2023-11-09T09:44:20.159Z,12.30
2023-11-09T09:46:49.356Z,12.50
2023-11-09T09:49:16.349Z,12.60
2023-11-09T09:51:44.993Z,12.70
2023-11-09T09:54:14.066Z,12.70
2023-11-09T09:56:42.087Z,12.60
2023-11-09T09:59:12.689Z,12.50
2023-11-09T10:01:50.097Z,12.50
2023-11-09T10:04:17.301Z,12.40
2023-11-09T10:06:46.911Z,12.60
2023-11-09T10:09:15.742Z,12.40
2023-11-09T10:11:43.760Z,12.50
2023-11-09T10:14:13.107Z,12.50
2023-11-09T10:16:42.246Z,12.60
2023-11-09T10:19:10.523Z,12.60
2023-11-09T10:21:37.825Z,12.60
2023-11-09T10:24:15.128Z,12.60
2023-11-09T10:26:46.970Z,12.60
2023-11-09T10:29:21.749Z,12.60
2023-11-09T10:31:49.219Z,12.60
2023-11-09T10:34:17.099Z,12.50
2023-11-09T10:36:50.854Z,12.60
2023-11-09T10:39:26.322Z,12.50
2023-11-09T10:41:58.271Z,12.60
2023-11-09T10:44:30.548Z,12.50
2023-11-09T10:47:04.209Z,12.70
2023-11-09T10:49:45.343Z,12.60
2023-11-09T10:52:23.309Z,12.70
2023-11-09T10:57:44.512Z,12.50
2023-11-09T11:00:33.262Z,12.50
2023-11-09T11:03:28.598Z,12.60
2023-11-09T11:06:22.556Z,12.70
2023-11-09T11:08:57.843Z,12.60
2023-11-09T11:11:35.630Z,12.50
2023-11-09T11:14:11.295Z,12.60
2023-11-09T11:16:47.383Z,12.50
2023-11-09T11:20:17.001Z,12.70
2023-11-09T11:23:58.340Z,12.60
2023-11-09T11:26:58.064Z,12.60
2023-11-09T11:29:36.857Z,12.50
2023-11-09T11:32:17.607Z,12.60
2023-11-09T11:34:57.582Z,12.70
2023-11-09T11:37:34.841Z,12.70
2023-11-09T11:40:10.184Z,12.70
2023-11-09T11:42:39.771Z,12.60
2023-11-09T11:45:12.851Z,12.50
2023-11-09T11:47:48.341Z,12.60
2023-11-09T11:50:18.057Z,12.60
2023-11-09T11:52:49.655Z,12.60
2023-11-09T11:55:22.044Z,12.70
2023-11-09T11:58:09.106Z,12.70
2023-11-09T12:00:43.670Z,12.80
2023-11-09T12:03:18.009Z,12.70
2023-11-09T12:05:47.665Z,12.70
2023-11-09T12:08:17.962Z,12.70
2023-11-09T12:10:45.215Z,12.80
2023-11-09T12:13:14.014Z,12.80
2023-11-09T12:16:07.737Z,12.70
2023-11-09T12:18:34.675Z,12.70
2023-11-09T12:21:03.264Z,12.60
2023-11-09T12:23:30.529Z,12.90
2023-11-09T12:26:43.810Z,12.80
2023-11-09T12:29:22.214Z,12.80
2023-11-09T12:33:25.626Z,12.80
2023-11-09T12:34:49.897Z,12.90
2023-11-09T12:41:10.231Z,12.70
2023-11-09T12:43:41.261Z,12.90
2023-11-09T12:46:37.480Z,12.80
2023-11-09T12:49:21.980Z,12.80
2023-11-09T12:51:48.994Z,13.10
2023-11-09T12:54:16.396Z,12.80
2023-11-09T12:57:04.411Z,12.90
2023-11-09T12:59:32.695Z,12.70
2023-11-09T13:02:15.520Z,12.80
2023-11-09T13:04:47.241Z,12.90
2023-11-09T13:07:15.480Z,12.70
2023-11-09T13:09:44.990Z,12.90
2023-11-09T13:12:29.386Z,12.90
2023-11-09T13:15:10.317Z,12.70
2023-11-09T13:17:51.080Z,12.80
2023-11-09T13:20:29.036Z,12.70
2023-11-09T13:23:09.242Z,12.90
2023-11-09T13:25:46.092Z,12.90
2023-11-09T13:28:17.549Z,12.90
2023-11-09T13:30:55.167Z,12.80
2023-11-09T13:33:30.782Z,12.80
2023-11-09T13:36:14.307Z,13.00
2023-11-09T13:38:52.637Z,13.00
2023-11-09T13:41:22.520Z,12.90
2023-11-09T13:44:07.530Z,12.80
2023-11-09T13:46:42.660Z,12.70
2023-11-09T13:49:15.005Z,12.80
2023-11-09T13:52:14.447Z,12.80
2023-11-09T13:54:43.948Z,12.60
2023-11-09T13:57:14.402Z,12.50
2023-11-09T13:59:55.023Z,12.50
2023-11-09T14:02:31.533Z,12.50
2023-11-09T14:05:08.749Z,12.50
2023-11-09T14:07:44.474Z,12.40
2023-11-09T14:10:22.857Z,12.60
2023-11-09T14:12:53.656Z,12.60
2023-11-09T14:15:26.445Z,12.60
2023-11-09T14:18:29.949Z,12.50
2023-11-09T14:21:25.184Z,12.60
2023-11-09T14:24:01.622Z,12.70
2023-11-09T14:26:37.711Z,12.50
2023-11-09T14:29:29.581Z,12.60
2023-11-09T14:32:13.970Z,12.40
2023-11-09T14:35:07.768Z,12.40
2023-11-09T14:38:21.445Z,12.30
2023-11-09T14:41:04.203Z,12.40
2023-11-09T14:43:36.916Z,12.40
2023-11-09T14:49:38.169Z,12.40
2023-11-09T14:52:46.127Z,12.30
2023-11-09T14:55:57.323Z,12.20
2023-11-09T14:58:41.328Z,12.20
2023-11-09T15:01:28.975Z,12.10
2023-11-09T15:04:31.593Z,12.10
2023-11-09T15:07:59.792Z,12.20
2023-11-09T15:11:04.647Z,12.20
2023-11-09T15:13:56.274Z,12.30
2023-11-09T15:17:07.693Z,12.30
2023-11-09T15:20:03.982Z,12.10
2023-11-09T15:22:44.977Z,12.20
2023-11-09T15:25:53.667Z,12.10
2023-11-09T15:28:43.531Z,12.00
2023-11-09T15:31:39.822Z,12.20
2023-11-09T15:34:28.321Z,12.00
2023-11-09T15:37:23.886Z,12.00
2023-11-09T15:41:09.312Z,12.00
2023-11-09T15:43:45.084Z,12.00
2023-11-09T15:47:19.981Z,12.20
2023-11-09T15:50:10.695Z,12.00
2023-11-09T15:52:55.283Z,12.00
2023-11-09T15:55:40.363Z,12.00
2023-11-09T15:59:21.789Z,11.90
2023-11-09T16:02:30.758Z,11.90
2023-11-09T16:08:29.452Z,11.90
2023-11-09T16:15:24.036Z,11.90
2023-11-09T16:18:27.288Z,11.80
2023-11-09T16:21:40.130Z,11.70
2023-11-09T16:24:32.911Z,11.80
2023-11-09T16:27:21.095Z,11.80
2023-11-09T16:29:55.011Z,11.70
2023-11-09T16:32:40.586Z,11.80
2023-11-09T16:35:25.686Z,11.60
2023-11-09T16:38:45.736Z,11.60
2023-11-09T16:42:13.415Z,11.60
2023-11-09T16:45:10.572Z,11.30
2023-11-09T16:51:00.089Z,11.40
2023-11-09T16:53:29.784Z,11.40
2023-11-09T16:55:57.153Z,11.40
2023-11-09T16:58:25.097Z,11.30
2023-11-09T17:17:12.464Z,11.10
2023-11-09T17:20:14.080Z,11.10
2023-11-09T17:23:16.386Z,11.00
2023-11-09T17:25:52.488Z,10.90
2023-11-09T17:28:25.774Z,11.00
2023-11-09T17:31:03.388Z,10.90
2023-11-09T17:33:33.455Z,10.90
2023-11-09T17:36:01.290Z,10.90
2023-11-09T17:38:35.938Z,11.00
2023-11-09T17:41:39.888Z,11.10
2023-11-09T17:49:08.218Z,11.10
2023-11-09T17:52:36.123Z,11.20
2023-11-09T18:07:25.174Z,11.00
2023-11-09T18:16:33.100Z,11.10
2023-11-09T18:48:11.599Z,11.20
2023-11-09T19:09:11.179Z,11.30
2023-11-09T19:12:59.725Z,11.10
2023-11-09T19:16:24.350Z,11.20
2023-11-09T19:20:08.777Z,11.20
2023-11-09T19:27:06.226Z,11.10
2023-11-09T19:29:36.433Z,11.20
2023-11-09T19:33:12.331Z,11.20
